sensor_id;sensor_type;location;lat;lon;timestamp;pressure;altitude;pressure_sealevel;temperature;humidity
51053;BME280;37093;37.716;-122.060;2023-02-18T00:01:02;100093.86;;;18.28;16.19
51053;BME280;37093;37.716;-122.060;2023-02-18T00:03:36;100097.02;;;18.13;16.84
51053;BME280;37093;37.716;-122.060;2023-02-18T00:06:16;100086.06;;;18.44;17.03
51053;BME280;37093;37.716;-122.060;2023-02-18T00:08:46;100091.40;;;18.38;17.12
51053;BME280;37093;37.716;-122.060;2023-02-18T00:11:15;100088.93;;;18.16;17.26
51053;BME280;37093;37.716;-122.060;2023-02-18T00:13:49;100088.02;;;18.63;16.89
51053;BME280;37093;37.716;-122.060;2023-02-18T00:16:19;100087.15;;;18.71;17.04
51053;BME280;37093;37.716;-122.060;2023-02-18T00:18:48;100090.05;;;18.64;17.08
51053;BME280;37093;37.716;-122.060;2023-02-18T00:21:16;100086.24;;;18.75;16.07
51053;BME280;37093;37.716;-122.060;2023-02-18T00:23:45;100086.67;;;19.01;16.74
51053;BME280;37093;37.716;-122.060;2023-02-18T00:26:15;100087.13;;;19.05;16.76
51053;BME280;37093;37.716;-122.060;2023-02-18T00:28:44;100082.46;;;19.53;15.80
51053;BME280;37093;37.716;-122.060;2023-02-18T00:31:16;100083.46;;;18.77;16.81
51053;BME280;37093;37.716;-122.060;2023-02-18T00:33:45;100081.49;;;18.87;16.78
51053;BME280;37093;37.716;-122.060;2023-02-18T00:36:16;100081.62;;;18.82;16.01
51053;BME280;37093;37.716;-122.060;2023-02-18T00:38:47;100083.89;;;19.12;16.25
51053;BME280;37093;37.716;-122.060;2023-02-18T00:41:16;100082.66;;;19.37;15.21
51053;BME280;37093;37.716;-122.060;2023-02-18T00:43:44;100084.83;;;18.73;16.40
51053;BME280;37093;37.716;-122.060;2023-02-18T00:46:13;100085.77;;;18.66;16.33
51053;BME280;37093;37.716;-122.060;2023-02-18T00:48:41;100082.91;;;18.55;15.49
51053;BME280;37093;37.716;-122.060;2023-02-18T00:51:10;100072.49;;;18.40;15.58
51053;BME280;37093;37.716;-122.060;2023-02-18T00:53:39;100072.53;;;18.31;15.22
51053;BME280;37093;37.716;-122.060;2023-02-18T00:56:09;100069.22;;;18.51;15.05
51053;BME280;37093;37.716;-122.060;2023-02-18T00:58:37;100069.40;;;18.70;15.64
51053;BME280;37093;37.716;-122.060;2023-02-18T01:01:07;100066.36;;;18.50;16.31
51053;BME280;37093;37.716;-122.060;2023-02-18T01:03:36;100064.99;;;18.94;15.39
51053;BME280;37093;37.716;-122.060;2023-02-18T01:06:06;100061.07;;;18.65;16.46
51053;BME280;37093;37.716;-122.060;2023-02-18T01:08:36;100059.35;;;18.87;15.65
51053;BME280;37093;37.716;-122.060;2023-02-18T01:11:07;100061.00;;;18.87;15.55
51053;BME280;37093;37.716;-122.060;2023-02-18T01:13:36;100061.94;;;18.53;16.08
51053;BME280;37093;37.716;-122.060;2023-02-18T01:16:06;100060.38;;;18.77;16.10
51053;BME280;37093;37.716;-122.060;2023-02-18T01:18:35;100062.43;;;19.03;15.43
51053;BME280;37093;37.716;-122.060;2023-02-18T01:21:04;100065.33;;;19.08;16.63
51053;BME280;37093;37.716;-122.060;2023-02-18T01:23:32;100070.89;;;19.10;15.35
51053;BME280;37093;37.716;-122.060;2023-02-18T01:26:01;100073.39;;;19.06;16.17
51053;BME280;37093;37.716;-122.060;2023-02-18T01:28:30;100070.84;;;19.07;15.84
51053;BME280;37093;37.716;-122.060;2023-02-18T01:31:02;100071.48;;;18.93;16.85
51053;BME280;37093;37.716;-122.060;2023-02-18T01:33:31;100076.89;;;18.72;15.63
51053;BME280;37093;37.716;-122.060;2023-02-18T01:36:00;100079.26;;;18.69;17.04
51053;BME280;37093;37.716;-122.060;2023-02-18T01:38:28;100083.03;;;18.65;16.79
51053;BME280;37093;37.716;-122.060;2023-02-18T01:40:57;100084.60;;;18.69;17.54
51053;BME280;37093;37.716;-122.060;2023-02-18T01:43:25;100086.30;;;18.81;17.62
51053;BME280;37093;37.716;-122.060;2023-02-18T01:46:03;100088.94;;;18.50;17.05
51053;BME280;37093;37.716;-122.060;2023-02-18T01:48:36;100087.82;;;18.46;16.63
51053;BME280;37093;37.716;-122.060;2023-02-18T01:51:10;100091.27;;;18.69;17.62
51053;BME280;37093;37.716;-122.060;2023-02-18T01:53:46;100092.55;;;18.55;17.47
51053;BME280;37093;37.716;-122.060;2023-02-18T01:56:22;100090.68;;;18.67;16.89
51053;BME280;37093;37.716;-122.060;2023-02-18T01:58:53;100092.02;;;18.25;17.35
51053;BME280;37093;37.716;-122.060;2023-02-18T02:01:23;100096.61;;;18.28;17.35
51053;BME280;37093;37.716;-122.060;2023-02-18T02:03:53;100096.64;;;18.19;17.00
51053;BME280;37093;37.716;-122.060;2023-02-18T02:06:23;100096.78;;;18.06;16.83
51053;BME280;37093;37.716;-122.060;2023-02-18T02:08:54;100094.28;;;17.89;17.15
51053;BME280;37093;37.716;-122.060;2023-02-18T02:11:40;100095.99;;;17.87;17.35
51053;BME280;37093;37.716;-122.060;2023-02-18T02:14:23;100098.09;;;17.66;17.23
51053;BME280;37093;37.716;-122.060;2023-02-18T02:17:03;100096.37;;;17.84;17.71
51053;BME280;37093;37.716;-122.060;2023-02-18T02:19:53;100097.31;;;17.38;17.25
51053;BME280;37093;37.716;-122.060;2023-02-18T02:22:56;100101.55;;;17.23;17.78
51053;BME280;37093;37.716;-122.060;2023-02-18T02:25:42;100100.96;;;17.13;18.02
51053;BME280;37093;37.716;-122.060;2023-02-18T02:28:38;100096.64;;;17.09;17.38
51053;BME280;37093;37.716;-122.060;2023-02-18T02:31:57;100097.37;;;17.01;18.04
51053;BME280;37093;37.716;-122.060;2023-02-18T02:34:37;100100.54;;;17.09;17.96
51053;BME280;37093;37.716;-122.060;2023-02-18T02:37:13;100101.56;;;17.40;17.63
51053;BME280;37093;37.716;-122.060;2023-02-18T02:39:51;100100.67;;;16.90;17.91
51053;BME280;37093;37.716;-122.060;2023-02-18T02:42:28;100102.76;;;16.67;18.29
51053;BME280;37093;37.716;-122.060;2023-02-18T02:45:05;100103.19;;;17.08;18.26
51053;BME280;37093;37.716;-122.060;2023-02-18T02:47:42;100098.50;;;16.95;18.56
51053;BME280;37093;37.716;-122.060;2023-02-18T02:50:18;100097.18;;;16.87;17.72
51053;BME280;37093;37.716;-122.060;2023-02-18T02:52:51;100101.68;;;16.79;18.24
51053;BME280;37093;37.716;-122.060;2023-02-18T02:55:21;100099.72;;;16.71;17.66
51053;BME280;37093;37.716;-122.060;2023-02-18T02:57:51;100097.81;;;16.47;18.35
51053;BME280;37093;37.716;-122.060;2023-02-18T03:00:23;100094.88;;;16.48;18.21
51053;BME280;37093;37.716;-122.060;2023-02-18T03:03:18;100099.89;;;16.44;18.20
51053;BME280;37093;37.716;-122.060;2023-02-18T03:06:09;100102.36;;;16.34;17.85
51053;BME280;37093;37.716;-122.060;2023-02-18T03:08:49;100106.50;;;16.32;18.45
51053;BME280;37093;37.716;-122.060;2023-02-18T03:11:25;100109.35;;;16.05;18.57
51053;BME280;37093;37.716;-122.060;2023-02-18T03:14:03;100110.73;;;16.28;18.93
51053;BME280;37093;37.716;-122.060;2023-02-18T03:16:40;100106.87;;;16.17;19.24
51053;BME280;37093;37.716;-122.060;2023-02-18T03:19:16;100109.22;;;16.12;19.05
51053;BME280;37093;37.716;-122.060;2023-02-18T03:21:49;100111.62;;;16.01;19.12
51053;BME280;37093;37.716;-122.060;2023-02-18T03:24:23;100119.57;;;16.35;19.83
51053;BME280;37093;37.716;-122.060;2023-02-18T03:26:58;100118.47;;;15.74;19.83
51053;BME280;37093;37.716;-122.060;2023-02-18T03:29:28;100124.11;;;15.79;19.94
51053;BME280;37093;37.716;-122.060;2023-02-18T03:31:59;100122.38;;;15.69;20.78
51053;BME280;37093;37.716;-122.060;2023-02-18T03:34:33;100126.96;;;15.47;20.26
51053;BME280;37093;37.716;-122.060;2023-02-18T03:37:03;100124.39;;;15.06;19.54
51053;BME280;37093;37.716;-122.060;2023-02-18T03:39:34;100121.52;;;15.12;19.53
51053;BME280;37093;37.716;-122.060;2023-02-18T03:42:03;100122.01;;;14.92;20.27
51053;BME280;37093;37.716;-122.060;2023-02-18T03:44:32;100123.66;;;15.05;20.06
51053;BME280;37093;37.716;-122.060;2023-02-18T03:47:00;100120.06;;;15.56;19.83
51053;BME280;37093;37.716;-122.060;2023-02-18T03:49:29;100120.20;;;15.05;20.16
51053;BME280;37093;37.716;-122.060;2023-02-18T03:51:58;100120.37;;;14.30;19.90
51053;BME280;37093;37.716;-122.060;2023-02-18T03:54:26;100119.00;;;14.38;19.70
51053;BME280;37093;37.716;-122.060;2023-02-18T03:56:55;100119.32;;;14.83;20.02
51053;BME280;37093;37.716;-122.060;2023-02-18T03:59:24;100122.17;;;14.48;20.05
51053;BME280;37093;37.716;-122.060;2023-02-18T04:01:52;100123.09;;;14.68;19.49
51053;BME280;37093;37.716;-122.060;2023-02-18T04:04:21;100129.11;;;14.70;19.91
51053;BME280;37093;37.716;-122.060;2023-02-18T04:06:50;100132.50;;;14.74;20.30
51053;BME280;37093;37.716;-122.060;2023-02-18T04:09:19;100136.70;;;14.47;19.82
51053;BME280;37093;37.716;-122.060;2023-02-18T04:11:48;100139.55;;;14.79;20.43
51053;BME280;37093;37.716;-122.060;2023-02-18T04:14:16;100138.19;;;14.19;20.30
51053;BME280;37093;37.716;-122.060;2023-02-18T04:16:45;100142.82;;;14.60;20.22
51053;BME280;37093;37.716;-122.060;2023-02-18T04:19:13;100143.39;;;14.49;20.38
51053;BME280;37093;37.716;-122.060;2023-02-18T04:21:42;100141.44;;;14.33;20.03
51053;BME280;37093;37.716;-122.060;2023-02-18T04:24:11;100143.70;;;13.82;20.92
51053;BME280;37093;37.716;-122.060;2023-02-18T04:26:39;100140.36;;;14.13;21.02
51053;BME280;37093;37.716;-122.060;2023-02-18T04:29:08;100142.37;;;14.29;20.84
51053;BME280;37093;37.716;-122.060;2023-02-18T04:31:37;100146.97;;;14.12;20.91
51053;BME280;37093;37.716;-122.060;2023-02-18T04:34:05;100148.33;;;14.20;20.76
51053;BME280;37093;37.716;-122.060;2023-02-18T04:36:34;100154.22;;;14.52;21.26
51053;BME280;37093;37.716;-122.060;2023-02-18T04:39:03;100153.94;;;14.08;20.73
51053;BME280;37093;37.716;-122.060;2023-02-18T04:41:31;100160.16;;;14.20;20.13
51053;BME280;37093;37.716;-122.060;2023-02-18T04:44:00;100162.47;;;14.13;20.13
51053;BME280;37093;37.716;-122.060;2023-02-18T04:46:29;100169.97;;;14.03;20.86
51053;BME280;37093;37.716;-122.060;2023-02-18T04:48:57;100172.11;;;14.13;21.93
51053;BME280;37093;37.716;-122.060;2023-02-18T04:51:26;100167.73;;;14.14;22.14
51053;BME280;37093;37.716;-122.060;2023-02-18T04:53:54;100167.45;;;13.84;22.59
51053;BME280;37093;37.716;-122.060;2023-02-18T04:56:23;100166.75;;;14.04;21.81
51053;BME280;37093;37.716;-122.060;2023-02-18T04:58:52;100166.70;;;13.95;21.57
51053;BME280;37093;37.716;-122.060;2023-02-18T05:01:20;100170.70;;;13.72;21.50
51053;BME280;37093;37.716;-122.060;2023-02-18T05:03:49;100176.73;;;14.22;20.91
51053;BME280;37093;37.716;-122.060;2023-02-18T05:06:18;100173.85;;;13.98;20.89
51053;BME280;37093;37.716;-122.060;2023-02-18T05:08:47;100180.04;;;13.96;20.74
51053;BME280;37093;37.716;-122.060;2023-02-18T05:11:15;100182.95;;;13.67;21.16
51053;BME280;37093;37.716;-122.060;2023-02-18T05:13:44;100186.60;;;13.91;21.48
51053;BME280;37093;37.716;-122.060;2023-02-18T05:16:12;100192.31;;;13.58;21.50
51053;BME280;37093;37.716;-122.060;2023-02-18T05:18:41;100195.95;;;13.82;21.51
51053;BME280;37093;37.716;-122.060;2023-02-18T05:21:09;100196.03;;;13.62;21.56
51053;BME280;37093;37.716;-122.060;2023-02-18T05:23:37;100196.61;;;13.14;22.40
51053;BME280;37093;37.716;-122.060;2023-02-18T05:26:06;100192.27;;;13.07;22.10
51053;BME280;37093;37.716;-122.060;2023-02-18T05:28:34;100192.45;;;13.57;21.87
51053;BME280;37093;37.716;-122.060;2023-02-18T05:31:03;100193.73;;;13.32;21.57
51053;BME280;37093;37.716;-122.060;2023-02-18T05:33:32;100194.19;;;13.25;21.41
51053;BME280;37093;37.716;-122.060;2023-02-18T05:36:00;100200.03;;;13.22;21.11
51053;BME280;37093;37.716;-122.060;2023-02-18T05:38:29;100199.96;;;13.42;21.51
51053;BME280;37093;37.716;-122.060;2023-02-18T05:40:57;100195.60;;;13.37;21.31
51053;BME280;37093;37.716;-122.060;2023-02-18T05:43:26;100194.93;;;13.41;21.44
51053;BME280;37093;37.716;-122.060;2023-02-18T05:45:55;100196.17;;;13.11;20.45
51053;BME280;37093;37.716;-122.060;2023-02-18T05:48:23;100197.27;;;12.98;21.23
51053;BME280;37093;37.716;-122.060;2023-02-18T05:50:54;100201.03;;;12.79;21.84
51053;BME280;37093;37.716;-122.060;2023-02-18T05:53:22;100202.14;;;12.82;21.88
51053;BME280;37093;37.716;-122.060;2023-02-18T05:55:51;100204.39;;;12.54;22.74
51053;BME280;37093;37.716;-122.060;2023-02-18T05:58:19;100202.32;;;12.32;22.84
51053;BME280;37093;37.716;-122.060;2023-02-18T06:00:48;100203.21;;;12.41;22.86
51053;BME280;37093;37.716;-122.060;2023-02-18T06:03:17;100198.84;;;12.63;22.85
51053;BME280;37093;37.716;-122.060;2023-02-18T06:05:48;100189.43;;;12.73;22.03
51053;BME280;37093;37.716;-122.060;2023-02-18T06:08:16;100186.43;;;12.77;22.00
51053;BME280;37093;37.716;-122.060;2023-02-18T06:10:45;100187.30;;;12.61;22.30
51053;BME280;37093;37.716;-122.060;2023-02-18T06:13:14;100191.75;;;12.90;22.62
51053;BME280;37093;37.716;-122.060;2023-02-18T06:15:42;100195.88;;;12.92;23.21
51053;BME280;37093;37.716;-122.060;2023-02-18T06:18:11;100197.46;;;13.22;23.46
51053;BME280;37093;37.716;-122.060;2023-02-18T06:20:39;100197.92;;;12.88;23.91
51053;BME280;37093;37.716;-122.060;2023-02-18T06:23:08;100199.58;;;12.80;24.05
51053;BME280;37093;37.716;-122.060;2023-02-18T06:25:37;100200.51;;;12.68;23.55
51053;BME280;37093;37.716;-122.060;2023-02-18T06:28:06;100201.92;;;12.63;23.62
51053;BME280;37093;37.716;-122.060;2023-02-18T06:30:35;100206.67;;;12.41;23.70
51053;BME280;37093;37.716;-122.060;2023-02-18T06:33:03;100209.23;;;12.79;24.60
51053;BME280;37093;37.716;-122.060;2023-02-18T06:35:32;100208.62;;;12.49;24.57
51053;BME280;37093;37.716;-122.060;2023-02-18T06:38:00;100208.02;;;12.50;24.49
51053;BME280;37093;37.716;-122.060;2023-02-18T06:40:29;100210.05;;;12.51;24.82
51053;BME280;37093;37.716;-122.060;2023-02-18T06:42:57;100206.57;;;12.36;24.84
51053;BME280;37093;37.716;-122.060;2023-02-18T06:45:25;100202.97;;;12.30;25.45
51053;BME280;37093;37.716;-122.060;2023-02-18T06:47:54;100204.87;;;11.68;25.32
51053;BME280;37093;37.716;-122.060;2023-02-18T06:50:23;100206.31;;;11.99;24.96
51053;BME280;37093;37.716;-122.060;2023-02-18T06:52:51;100205.68;;;11.74;25.54
51053;BME280;37093;37.716;-122.060;2023-02-18T06:55:20;100206.11;;;11.54;25.23
51053;BME280;37093;37.716;-122.060;2023-02-18T06:57:48;100202.13;;;11.93;25.19
51053;BME280;37093;37.716;-122.060;2023-02-18T07:00:18;100201.52;;;11.93;25.46
51053;BME280;37093;37.716;-122.060;2023-02-18T07:02:47;100206.42;;;12.03;25.20
51053;BME280;37093;37.716;-122.060;2023-02-18T07:05:16;100211.67;;;11.56;25.16
51053;BME280;37093;37.716;-122.060;2023-02-18T07:07:44;100207.81;;;12.02;25.60
51053;BME280;37093;37.716;-122.060;2023-02-18T07:10:13;100211.74;;;11.71;25.15
51053;BME280;37093;37.716;-122.060;2023-02-18T07:12:42;100204.41;;;11.96;25.67
51053;BME280;37093;37.716;-122.060;2023-02-18T07:15:11;100206.47;;;12.01;25.38
51053;BME280;37093;37.716;-122.060;2023-02-18T07:17:40;100211.07;;;11.78;25.45
51053;BME280;37093;37.716;-122.060;2023-02-18T07:20:09;100217.37;;;11.56;25.26
51053;BME280;37093;37.716;-122.060;2023-02-18T07:22:38;100220.43;;;11.63;25.34
51053;BME280;37093;37.716;-122.060;2023-02-18T07:25:07;100214.48;;;11.34;25.96
51053;BME280;37093;37.716;-122.060;2023-02-18T07:27:35;100207.26;;;11.98;25.52
51053;BME280;37093;37.716;-122.060;2023-02-18T07:30:05;100205.80;;;11.75;25.68
51053;BME280;37093;37.716;-122.060;2023-02-18T07:32:33;100207.06;;;11.85;26.08
51053;BME280;37093;37.716;-122.060;2023-02-18T07:35:02;100207.05;;;11.84;25.52
51053;BME280;37093;37.716;-122.060;2023-02-18T07:37:31;100209.02;;;11.92;25.22
51053;BME280;37093;37.716;-122.060;2023-02-18T07:39:59;100210.09;;;11.99;26.43
51053;BME280;37093;37.716;-122.060;2023-02-18T07:42:28;100208.99;;;12.07;26.62
51053;BME280;37093;37.716;-122.060;2023-02-18T07:44:57;100204.37;;;12.08;26.41
51053;BME280;37093;37.716;-122.060;2023-02-18T07:47:25;100206.40;;;11.88;25.71
51053;BME280;37093;37.716;-122.060;2023-02-18T07:49:54;100208.46;;;11.84;25.75
51053;BME280;37093;37.716;-122.060;2023-02-18T07:52:23;100208.24;;;11.80;25.77
51053;BME280;37093;37.716;-122.060;2023-02-18T07:54:51;100216.52;;;11.84;26.06
51053;BME280;37093;37.716;-122.060;2023-02-18T07:57:20;100220.94;;;11.47;26.24
51053;BME280;37093;37.716;-122.060;2023-02-18T07:59:49;100222.98;;;11.30;26.60
51053;BME280;37093;37.716;-122.060;2023-02-18T08:01:15;100226.43;;;10.87;26.57
51053;BME280;37093;37.716;-122.060;2023-02-18T08:03:44;100221.50;;;10.67;25.44
51053;BME280;37093;37.716;-122.060;2023-02-18T08:06:20;100224.59;;;12.40;24.54
51053;BME280;37093;37.716;-122.060;2023-02-18T08:08:49;100220.31;;;12.98;24.60
51053;BME280;37093;37.716;-122.060;2023-02-18T08:11:17;100219.79;;;12.26;25.63
51053;BME280;37093;37.716;-122.060;2023-02-18T08:13:47;100224.48;;;11.99;25.67
51053;BME280;37093;37.716;-122.060;2023-02-18T08:16:16;100219.24;;;11.78;25.86
51053;BME280;37093;37.716;-122.060;2023-02-18T08:18:46;100217.75;;;11.72;26.74
51053;BME280;37093;37.716;-122.060;2023-02-18T08:21:14;100223.67;;;11.56;26.47
51053;BME280;37093;37.716;-122.060;2023-02-18T08:23:43;100227.61;;;11.58;26.48
51053;BME280;37093;37.716;-122.060;2023-02-18T08:26:12;100226.76;;;11.37;26.19
51053;BME280;37093;37.716;-122.060;2023-02-18T08:28:40;100225.42;;;11.42;26.41
51053;BME280;37093;37.716;-122.060;2023-02-18T08:31:17;100226.21;;;11.60;26.76
51053;BME280;37093;37.716;-122.060;2023-02-18T08:33:45;100226.39;;;11.39;26.75
51053;BME280;37093;37.716;-122.060;2023-02-18T08:36:14;100224.03;;;11.48;26.65
51053;BME280;37093;37.716;-122.060;2023-02-18T08:38:43;100223.78;;;11.37;26.41
51053;BME280;37093;37.716;-122.060;2023-02-18T08:41:12;100226.15;;;11.36;26.27
51053;BME280;37093;37.716;-122.060;2023-02-18T08:43:40;100229.13;;;11.35;26.61
51053;BME280;37093;37.716;-122.060;2023-02-18T08:46:09;100223.91;;;11.15;26.55
51053;BME280;37093;37.716;-122.060;2023-02-18T08:48:37;100222.32;;;11.08;26.48
51053;BME280;37093;37.716;-122.060;2023-02-18T08:51:16;100220.70;;;11.24;26.89
51053;BME280;37093;37.716;-122.060;2023-02-18T08:53:44;100223.40;;;11.18;26.62
51053;BME280;37093;37.716;-122.060;2023-02-18T08:56:13;100222.34;;;11.04;26.45
51053;BME280;37093;37.716;-122.060;2023-02-18T08:58:42;100218.59;;;10.75;26.76
51053;BME280;37093;37.716;-122.060;2023-02-18T09:01:11;100217.40;;;11.31;27.41
51053;BME280;37093;37.716;-122.060;2023-02-18T09:03:40;100219.40;;;11.03;27.15
51053;BME280;37093;37.716;-122.060;2023-02-18T09:06:09;100218.03;;;11.25;27.28
51053;BME280;37093;37.716;-122.060;2023-02-18T09:08:37;100212.99;;;10.94;27.07
51053;BME280;37093;37.716;-122.060;2023-02-18T09:11:06;100213.22;;;10.84;27.12
51053;BME280;37093;37.716;-122.060;2023-02-18T09:13:35;100213.53;;;10.95;27.10
51053;BME280;37093;37.716;-122.060;2023-02-18T09:16:06;100212.06;;;10.95;27.37
51053;BME280;37093;37.716;-122.060;2023-02-18T09:18:35;100215.24;;;10.91;27.43
51053;BME280;37093;37.716;-122.060;2023-02-18T09:21:06;100213.80;;;10.76;27.55
51053;BME280;37093;37.716;-122.060;2023-02-18T09:23:35;100215.63;;;10.62;27.43
51053;BME280;37093;37.716;-122.060;2023-02-18T09:26:05;100212.19;;;10.16;27.50
51053;BME280;37093;37.716;-122.060;2023-02-18T09:28:34;100211.69;;;10.63;28.20
51053;BME280;37093;37.716;-122.060;2023-02-18T09:31:05;100209.31;;;10.66;27.98
51053;BME280;37093;37.716;-122.060;2023-02-18T09:33:35;100209.04;;;10.67;28.26
51053;BME280;37093;37.716;-122.060;2023-02-18T09:36:04;100209.66;;;10.43;27.83
51053;BME280;37093;37.716;-122.060;2023-02-18T09:38:33;100207.30;;;10.69;27.79
51053;BME280;37093;37.716;-122.060;2023-02-18T09:41:06;100207.25;;;10.60;28.07
51053;BME280;37093;37.716;-122.060;2023-02-18T09:43:39;100203.10;;;10.34;27.86
51053;BME280;37093;37.716;-122.060;2023-02-18T09:46:17;100206.77;;;10.62;27.22
51053;BME280;37093;37.716;-122.060;2023-02-18T09:48:48;100207.67;;;10.48;27.41
51053;BME280;37093;37.716;-122.060;2023-02-18T09:51:17;100204.07;;;10.39;27.91
51053;BME280;37093;37.716;-122.060;2023-02-18T09:53:46;100205.64;;;10.44;28.27
51053;BME280;37093;37.716;-122.060;2023-02-18T09:56:19;100207.15;;;10.42;27.57
51053;BME280;37093;37.716;-122.060;2023-02-18T09:58:48;100209.47;;;10.50;27.92
51053;BME280;37093;37.716;-122.060;2023-02-18T10:01:24;100212.08;;;10.14;28.41
51053;BME280;37093;37.716;-122.060;2023-02-18T10:03:58;100205.08;;;10.55;28.42
51053;BME280;37093;37.716;-122.060;2023-02-18T10:06:31;100200.50;;;10.17;28.18
51053;BME280;37093;37.716;-122.060;2023-02-18T10:09:02;100198.62;;;10.20;27.99
51053;BME280;37093;37.716;-122.060;2023-02-18T10:11:38;100198.92;;;10.21;28.10
51053;BME280;37093;37.716;-122.060;2023-02-18T10:14:11;100198.91;;;10.19;28.17
51053;BME280;37093;37.716;-122.060;2023-02-18T10:16:42;100199.91;;;10.10;27.67
51053;BME280;37093;37.716;-122.060;2023-02-18T10:19:21;100203.05;;;9.85;27.63
51053;BME280;37093;37.716;-122.060;2023-02-18T10:21:51;100204.83;;;10.22;27.75
51053;BME280;37093;37.716;-122.060;2023-02-18T10:24:27;100208.90;;;10.16;27.54
51053;BME280;37093;37.716;-122.060;2023-02-18T10:26:56;100215.48;;;10.23;27.83
51053;BME280;37093;37.716;-122.060;2023-02-18T10:29:26;100216.44;;;10.14;27.58
51053;BME280;37093;37.716;-122.060;2023-02-18T10:31:58;100216.27;;;10.05;27.65
51053;BME280;37093;37.716;-122.060;2023-02-18T10:34:39;100210.10;;;10.11;27.60
51053;BME280;37093;37.716;-122.060;2023-02-18T10:37:22;100199.47;;;10.11;28.17
51053;BME280;37093;37.716;-122.060;2023-02-18T10:40:03;100198.25;;;10.19;27.69
51053;BME280;37093;37.716;-122.060;2023-02-18T10:42:42;100199.99;;;10.25;27.09
51053;BME280;37093;37.716;-122.060;2023-02-18T10:45:22;100192.66;;;9.94;27.96
51053;BME280;37093;37.716;-122.060;2023-02-18T10:48:05;100188.69;;;10.18;27.96
51053;BME280;37093;37.716;-122.060;2023-02-18T10:50:39;100187.15;;;10.11;28.12
51053;BME280;37093;37.716;-122.060;2023-02-18T10:53:12;100190.58;;;10.18;27.32
51053;BME280;37093;37.716;-122.060;2023-02-18T10:55:45;100187.68;;;10.26;27.74
51053;BME280;37093;37.716;-122.060;2023-02-18T10:58:28;100181.41;;;10.51;27.68
51053;BME280;37093;37.716;-122.060;2023-02-18T11:00:57;100174.75;;;9.99;27.36
51053;BME280;37093;37.716;-122.060;2023-02-18T11:03:35;100172.73;;;9.92;27.34
51053;BME280;37093;37.716;-122.060;2023-02-18T11:06:16;100177.48;;;10.11;27.53
51053;BME280;37093;37.716;-122.060;2023-02-18T11:08:47;100177.09;;;10.29;27.86
51053;BME280;37093;37.716;-122.060;2023-02-18T11:11:20;100176.69;;;9.75;27.70
51053;BME280;37093;37.716;-122.060;2023-02-18T11:13:54;100168.94;;;9.93;27.66
51053;BME280;37093;37.716;-122.060;2023-02-18T11:16:35;100163.68;;;10.09;27.76
51053;BME280;37093;37.716;-122.060;2023-02-18T11:19:12;100162.81;;;10.41;27.70
51053;BME280;37093;37.716;-122.060;2023-02-18T11:22:07;100160.32;;;9.90;27.80
51053;BME280;37093;37.716;-122.060;2023-02-18T11:24:38;100156.93;;;9.87;27.77
51053;BME280;37093;37.716;-122.060;2023-02-18T11:27:09;100154.85;;;10.50;28.05
51053;BME280;37093;37.716;-122.060;2023-02-18T11:29:39;100153.04;;;10.03;28.19
51053;BME280;37093;37.716;-122.060;2023-02-18T11:32:11;100148.32;;;9.97;27.90
51053;BME280;37093;37.716;-122.060;2023-02-18T11:34:41;100142.64;;;10.06;27.92
51053;BME280;37093;37.716;-122.060;2023-02-18T11:37:12;100140.76;;;9.90;28.62
51053;BME280;37093;37.716;-122.060;2023-02-18T11:39:46;100138.60;;;10.08;28.24
51053;BME280;37093;37.716;-122.060;2023-02-18T11:42:18;100140.59;;;10.04;28.03
51053;BME280;37093;37.716;-122.060;2023-02-18T11:44:51;100141.65;;;9.86;27.92
51053;BME280;37093;37.716;-122.060;2023-02-18T11:47:24;100147.72;;;9.59;27.67
51053;BME280;37093;37.716;-122.060;2023-02-18T11:50:09;100144.66;;;10.00;27.89
51053;BME280;37093;37.716;-122.060;2023-02-18T11:52:43;100143.93;;;9.62;28.50
51053;BME280;37093;37.716;-122.060;2023-02-18T11:55:17;100140.65;;;9.90;28.69
51053;BME280;37093;37.716;-122.060;2023-02-18T11:57:49;100146.87;;;9.71;28.65
51053;BME280;37093;37.716;-122.060;2023-02-18T12:00:23;100153.50;;;9.79;28.71
51053;BME280;37093;37.716;-122.060;2023-02-18T12:02:54;100152.38;;;9.41;28.62
51053;BME280;37093;37.716;-122.060;2023-02-18T12:05:26;100148.29;;;9.60;28.75
51053;BME280;37093;37.716;-122.060;2023-02-18T12:07:58;100144.50;;;9.62;28.76
51053;BME280;37093;37.716;-122.060;2023-02-18T12:10:31;100136.48;;;9.56;28.91
51053;BME280;37093;37.716;-122.060;2023-02-18T12:13:06;100130.45;;;9.24;28.72
51053;BME280;37093;37.716;-122.060;2023-02-18T12:15:48;100130.01;;;9.55;28.63
51053;BME280;37093;37.716;-122.060;2023-02-18T12:18:47;100133.27;;;9.18;28.73
51053;BME280;37093;37.716;-122.060;2023-02-18T12:21:26;100133.70;;;9.42;28.77
51053;BME280;37093;37.716;-122.060;2023-02-18T12:24:08;100138.48;;;9.55;28.68
51053;BME280;37093;37.716;-122.060;2023-02-18T12:26:50;100140.82;;;9.59;28.67
51053;BME280;37093;37.716;-122.060;2023-02-18T12:29:39;100136.66;;;9.47;29.06
51053;BME280;37093;37.716;-122.060;2023-02-18T12:32:20;100136.40;;;9.42;29.17
51053;BME280;37093;37.716;-122.060;2023-02-18T12:35:01;100132.93;;;9.45;29.35
51053;BME280;37093;37.716;-122.060;2023-02-18T12:37:55;100135.83;;;9.07;29.22
51053;BME280;37093;37.716;-122.060;2023-02-18T12:40:40;100138.33;;;9.17;28.58
51053;BME280;37093;37.716;-122.060;2023-02-18T12:43:23;100139.76;;;9.47;28.85